createdAt,value
2023-11-28T00:01:47.320Z,90.30
2023-11-28T00:04:20.365Z,90.03
2023-11-28T00:06:55.342Z,78.87
2023-11-28T00:09:28.211Z,84.65
2023-11-28T00:12:01.083Z,86.20
2023-11-28T00:14:33.984Z,90.72
2023-11-28T00:17:07.212Z,74.68
2023-11-28T00:19:40.191Z,86.72
2023-11-28T00:22:14.472Z,86.18
2023-11-28T00:24:47.378Z,81.22
2023-11-28T00:27:20.237Z,82.88
2023-11-28T00:29:53.676Z,78.97
2023-11-28T00:32:26.679Z,81.70
2023-11-28T00:35:02.805Z,79.80
2023-11-28T00:37:40.982Z,80.05
2023-11-28T00:40:15.055Z,77.45
2023-11-28T00:45:25.780Z,70.57
2023-11-28T00:47:59.802Z,67.95
2023-11-28T00:50:32.881Z,63.85
2023-11-28T00:53:07.300Z,71.90
2023-11-28T00:55:40.469Z,69.45
2023-11-28T00:58:13.457Z,69.05
2023-11-28T01:00:46.350Z,68.13
2023-11-28T01:03:19.256Z,71.18
2023-11-28T01:05:52.447Z,72.60
2023-11-28T01:08:26.932Z,79.30
2023-11-28T01:10:59.952Z,73.78
2023-11-28T01:13:33.007Z,72.33
2023-11-28T01:16:06.685Z,72.68
2023-11-28T01:18:39.621Z,67.82
2023-11-28T01:21:13.725Z,71.05
2023-11-28T01:23:47.970Z,70.13
2023-11-28T01:26:20.938Z,70.53
2023-11-28T01:28:53.900Z,69.13
2023-11-28T01:31:29.478Z,77.13
2023-11-28T01:34:02.628Z,68.68
2023-11-28T01:36:35.561Z,76.43
2023-11-28T01:39:10.067Z,73.28
2023-11-28T01:41:47.799Z,77.13
2023-11-28T01:44:20.831Z,68.00
2023-11-28T01:46:55.026Z,71.70
2023-11-28T01:49:33.947Z,69.38
2023-11-28T01:52:09.120Z,70.93
2023-11-28T01:54:45.135Z,73.65
2023-11-28T01:57:18.164Z,68.75
2023-11-28T01:59:51.198Z,74.43
2023-11-28T02:02:24.691Z,69.20
2023-11-28T02:04:57.646Z,71.78
2023-11-28T02:07:30.832Z,71.57
2023-11-28T02:10:05.564Z,76.43
2023-11-28T02:12:38.503Z,72.80
2023-11-28T02:15:12.134Z,74.38
2023-11-28T02:17:45.216Z,76.88
2023-11-28T02:20:20.956Z,85.10
2023-11-28T02:22:53.893Z,81.90
2023-11-28T02:25:29.956Z,84.95
2023-11-28T02:28:04.917Z,79.35
2023-11-28T02:30:37.795Z,71.28
2023-11-28T02:33:10.795Z,75.88
2023-11-28T02:35:43.865Z,79.45
2023-11-28T02:38:17.285Z,87.88
2023-11-28T02:40:50.157Z,76.75
2023-11-28T02:43:24.559Z,85.65
2023-11-28T02:45:57.698Z,83.85
2023-11-28T02:48:31.611Z,84.07
2023-11-28T02:51:06.075Z,78.68
2023-11-28T02:53:39.977Z,78.63
2023-11-28T02:58:47.582Z,68.63
2023-11-28T03:01:20.715Z,66.53
2023-11-28T03:03:53.601Z,71.78
2023-11-28T03:06:26.660Z,63.75
2023-11-28T03:08:59.506Z,70.93
2023-11-28T03:11:32.431Z,72.05
2023-11-28T03:14:06.801Z,66.43
2023-11-28T03:16:40.180Z,69.43
2023-11-28T03:19:13.169Z,68.88
2023-11-28T03:21:46.086Z,68.40
2023-11-28T03:24:19.069Z,68.50
2023-11-28T03:26:51.937Z,68.13
2023-11-28T03:29:26.221Z,65.57
2023-11-28T03:31:59.259Z,74.30
2023-11-28T03:34:32.446Z,88.00
2023-11-28T03:37:05.363Z,91.90
2023-11-28T03:39:38.205Z,83.57
2023-11-28T03:42:11.572Z,78.97
2023-11-28T03:44:45.791Z,72.80
2023-11-28T03:47:19.108Z,72.90
2023-11-28T03:49:52.010Z,77.55
2023-11-28T03:52:24.925Z,73.10
2023-11-28T03:54:58.182Z,77.55
2023-11-28T03:57:31.259Z,73.07
2023-11-28T04:00:07.168Z,70.88
2023-11-28T04:02:40.289Z,74.20
2023-11-28T04:05:14.770Z,75.78
2023-11-28T04:07:47.871Z,73.13
2023-11-28T04:10:20.730Z,73.20
2023-11-28T04:12:54.786Z,72.23
2023-11-28T04:15:29.165Z,72.82
2023-11-28T04:18:02.846Z,74.57
2023-11-28T04:20:37.139Z,81.63
2023-11-28T04:23:10.357Z,72.82
2023-11-28T04:25:43.320Z,63.20
2023-11-28T04:28:16.268Z,70.75
2023-11-28T04:30:57.426Z,71.72
2023-11-28T04:33:32.839Z,68.68
2023-11-28T04:36:07.328Z,69.60
2023-11-28T04:38:40.369Z,76.97
2023-11-28T04:41:14.236Z,73.88
2023-11-28T04:43:48.707Z,64.43
2023-11-28T04:46:23.590Z,68.88
2023-11-28T04:48:56.667Z,61.13
2023-11-28T04:51:29.528Z,73.70
2023-11-28T04:54:02.467Z,60.50
2023-11-28T04:56:35.765Z,63.22
2023-11-28T04:59:09.093Z,58.63
2023-11-28T05:01:48.211Z,62.95
2023-11-28T05:04:21.375Z,62.05
2023-11-28T05:06:54.625Z,53.60
2023-11-28T05:09:28.674Z,61.28
2023-11-28T05:12:01.687Z,57.03
2023-11-28T05:14:35.973Z,55.35
2023-11-28T05:17:10.869Z,54.70
2023-11-28T05:19:44.116Z,56.20
2023-11-28T05:22:20.772Z,55.22
2023-11-28T05:24:54.204Z,73.95
2023-11-28T05:27:27.115Z,76.55
2023-11-28T05:30:00.080Z,76.40
2023-11-28T05:32:35.108Z,74.32
2023-11-28T05:35:08.927Z,76.25
2023-11-28T05:37:41.932Z,82.45
2023-11-28T05:40:16.651Z,81.03
2023-11-28T05:42:49.680Z,66.20
2023-11-28T05:45:22.591Z,66.27
2023-11-28T05:47:57.003Z,68.53
2023-11-28T05:50:30.157Z,71.60
2023-11-28T05:53:03.203Z,68.20
2023-11-28T05:55:36.192Z,64.77
2023-11-28T05:58:10.164Z,69.63
2023-11-28T06:03:17.532Z,63.47
2023-11-28T06:05:50.485Z,79.30
2023-11-28T06:08:23.481Z,62.93
2023-11-28T06:10:56.939Z,71.50
2023-11-28T06:13:29.807Z,65.43
2023-11-28T06:16:06.148Z,59.42
2023-11-28T06:18:42.549Z,63.08
2023-11-28T06:21:16.175Z,64.03
2023-11-28T06:23:50.845Z,65.30
2023-11-28T06:26:26.726Z,67.35
2023-11-28T06:28:59.770Z,61.13
2023-11-28T06:31:32.755Z,56.40
2023-11-28T06:34:07.105Z,70.80
2023-11-28T06:36:40.035Z,66.85
2023-11-28T06:39:12.873Z,67.20
2023-11-28T06:41:46.405Z,67.03
2023-11-28T06:44:20.186Z,69.90
2023-11-28T06:46:53.138Z,64.15
2023-11-28T06:49:27.450Z,76.20
2023-11-28T06:52:01.913Z,77.45
2023-11-28T06:54:35.321Z,78.60
2023-11-28T06:57:08.151Z,77.90
2023-11-28T06:59:41.144Z,71.47
2023-11-28T07:02:14.220Z,66.87
2023-11-28T07:04:48.836Z,73.65
2023-11-28T07:07:22.279Z,64.10
2023-11-28T07:09:56.078Z,75.13
2023-11-28T07:12:29.081Z,66.63
2023-11-28T07:15:01.959Z,67.35
2023-11-28T07:17:35.015Z,75.07
2023-11-28T07:20:11.186Z,66.50
2023-11-28T07:22:44.176Z,75.30
2023-11-28T07:25:17.120Z,75.90
2023-11-28T07:27:49.938Z,74.28
2023-11-28T07:30:22.807Z,78.32
2023-11-28T07:32:55.734Z,67.97
2023-11-28T07:35:30.008Z,67.20
2023-11-28T07:38:03.724Z,63.47
2023-11-28T07:40:38.511Z,72.85
2023-11-28T07:43:11.376Z,69.40
2023-11-28T07:45:44.343Z,70.45
2023-11-28T07:48:17.393Z,66.27
2023-11-28T07:50:51.682Z,73.73
2023-11-28T07:53:24.607Z,67.97
2023-11-28T07:55:57.462Z,64.75
2023-11-28T07:58:30.431Z,60.67
2023-11-28T08:01:03.346Z,69.15
2023-11-28T08:03:36.277Z,68.72
2023-11-28T08:06:13.484Z,75.33
2023-11-28T08:08:46.501Z,65.70
2023-11-28T08:11:19.569Z,59.00
2023-11-28T08:13:52.680Z,68.70
2023-11-28T08:16:25.682Z,58.67
2023-11-28T08:18:58.580Z,58.78
2023-11-28T08:21:32.796Z,67.65
2023-11-28T08:24:06.538Z,53.92
2023-11-28T08:26:39.585Z,55.90
2023-11-28T08:29:12.557Z,56.10
2023-11-28T08:31:45.568Z,57.80
2023-11-28T08:34:18.620Z,60.43
2023-11-28T08:36:53.107Z,55.50
2023-11-28T08:39:29.587Z,54.70
2023-11-28T08:42:02.476Z,62.60
2023-11-28T08:44:36.662Z,66.57
2023-11-28T08:47:09.554Z,65.28
2023-11-28T08:49:44.912Z,68.70
2023-11-28T08:52:23.880Z,66.88
2023-11-28T08:55:07.085Z,57.05
2023-11-28T08:57:40.077Z,61.40
2023-11-28T09:00:18.094Z,52.47
2023-11-28T09:02:52.731Z,59.78
2023-11-28T09:05:25.771Z,54.95
2023-11-28T09:08:22.781Z,56.47
2023-11-28T09:10:55.740Z,52.78
2023-11-28T09:13:28.934Z,57.17
2023-11-28T09:16:04.182Z,56.83
2023-11-28T09:18:37.733Z,57.65
2023-11-28T09:21:13.371Z,63.65
2023-11-28T09:23:47.676Z,56.08
2023-11-28T09:26:20.621Z,62.17
2023-11-28T09:28:53.655Z,56.53
2023-11-28T09:31:32.525Z,62.13
2023-11-28T09:34:05.507Z,55.30
2023-11-28T09:36:38.652Z,58.10
2023-11-28T09:39:13.379Z,56.35
2023-11-28T09:41:49.132Z,56.03
2023-11-28T09:44:27.282Z,46.92
2023-11-28T09:47:08.638Z,59.33
2023-11-28T09:49:43.748Z,56.50
2023-11-28T09:52:17.907Z,51.28
2023-11-28T09:57:33.417Z,54.15
2023-11-28T10:00:12.159Z,55.45
2023-11-28T10:02:46.015Z,56.97
2023-11-28T10:07:55.278Z,55.92
2023-11-28T10:10:29.591Z,52.92
2023-11-28T10:13:02.497Z,52.03
2023-11-28T10:15:35.374Z,54.58
2023-11-28T10:18:08.899Z,52.78
2023-11-28T10:20:41.820Z,61.08
2023-11-28T10:23:16.983Z,58.83
2023-11-28T10:25:51.681Z,57.80
2023-11-28T10:28:24.726Z,54.72
2023-11-28T10:30:57.628Z,53.80
2023-11-28T10:33:30.599Z,54.47
2023-11-28T10:36:03.580Z,59.47
2023-11-28T10:38:38.166Z,51.53
2023-11-28T10:41:12.435Z,52.10
2023-11-28T10:43:46.980Z,51.78
2023-11-28T10:46:20.302Z,55.83
2023-11-28T10:48:53.342Z,57.23
2023-11-28T10:51:27.487Z,53.80
2023-11-28T10:54:05.497Z,59.20
2023-11-28T10:56:48.283Z,54.63
2023-11-28T10:59:27.483Z,56.40
2023-11-28T11:02:02.446Z,53.13
2023-11-28T11:04:36.254Z,51.80
2023-11-28T11:07:09.780Z,52.28
2023-11-28T11:09:42.652Z,53.15
2023-11-28T11:12:17.934Z,57.72
2023-11-28T11:14:58.711Z,58.88
2023-11-28T11:17:41.989Z,50.35
2023-11-28T11:20:18.410Z,53.03
2023-11-28T11:22:55.154Z,52.85
2023-11-28T11:25:40.525Z,57.05
2023-11-28T11:28:15.172Z,51.75
2023-11-28T11:30:48.259Z,56.38
2023-11-28T11:33:25.599Z,53.40
2023-11-28T11:36:10.912Z,48.88
2023-11-28T11:38:48.111Z,48.30
2023-11-28T11:41:22.148Z,48.15
2023-11-28T11:49:03.769Z,48.67
2023-11-28T11:54:12.307Z,45.47
2023-11-28T11:56:45.183Z,56.35
2023-11-28T11:59:21.678Z,49.85
2023-11-28T12:01:55.037Z,53.88
2023-11-28T12:04:28.240Z,53.28
2023-11-28T12:07:06.748Z,51.45
2023-11-28T12:09:40.205Z,51.92
2023-11-28T12:12:14.455Z,52.22
2023-11-28T12:14:49.112Z,49.13
2023-11-28T12:17:22.560Z,53.90
2023-11-28T12:19:57.085Z,54.40
2023-11-28T12:22:31.422Z,50.70
2023-11-28T12:25:04.586Z,53.10
2023-11-28T12:27:37.471Z,57.00
2023-11-28T12:30:13.529Z,54.53
2023-11-28T12:32:46.994Z,46.08
2023-11-28T12:35:21.915Z,43.80
2023-11-28T12:37:56.045Z,49.45
2023-11-28T12:40:29.193Z,54.97
2023-11-28T12:43:03.875Z,49.28
2023-11-28T12:45:38.085Z,49.85
2023-11-28T12:48:12.596Z,50.60
2023-11-28T12:50:47.797Z,45.67
2023-11-28T12:53:21.196Z,51.45
2023-11-28T12:55:54.223Z,52.28
2023-11-28T12:58:27.531Z,57.10
2023-11-28T13:01:01.770Z,48.80
2023-11-28T13:03:37.052Z,46.67
2023-11-28T13:06:10.894Z,48.38
2023-11-28T13:08:43.789Z,58.70
2023-11-28T13:11:17.838Z,49.47
2023-11-28T13:16:27.852Z,48.47
2023-11-28T13:19:01.623Z,46.40
2023-11-28T13:21:37.064Z,52.38
2023-11-28T13:24:16.251Z,45.88
2023-11-28T13:26:49.105Z,50.80
2023-11-28T13:29:24.020Z,48.88
2023-11-28T13:31:59.821Z,53.60
2023-11-28T13:34:32.700Z,51.90
2023-11-28T13:37:07.185Z,45.90
2023-11-28T13:39:42.317Z,52.95
2023-11-28T13:42:15.212Z,48.22
2023-11-28T13:44:48.059Z,52.70
2023-11-28T13:47:22.897Z,49.60
2023-11-28T13:49:57.323Z,60.13
2023-11-28T13:52:30.390Z,53.13
2023-11-28T13:55:03.349Z,57.83
2023-11-28T13:57:36.270Z,56.60
2023-11-28T14:00:09.870Z,54.35
2023-11-28T14:02:45.772Z,54.00
2023-11-28T14:05:20.138Z,55.53
2023-11-28T14:10:26.002Z,57.50
2023-11-28T14:12:58.927Z,53.33
2023-11-28T14:15:32.283Z,59.25
2023-11-28T14:18:07.136Z,49.45
2023-11-28T14:20:40.039Z,57.08
2023-11-28T14:23:12.946Z,50.40
2023-11-28T14:25:46.422Z,59.40
2023-11-28T14:28:19.334Z,59.80
2023-11-28T14:30:52.237Z,51.83
2023-11-28T14:33:29.787Z,56.17
2023-11-28T14:36:02.795Z,54.22
2023-11-28T14:38:35.725Z,49.15
2023-11-28T14:41:09.541Z,57.20
2023-11-28T14:43:42.466Z,55.42
2023-11-28T14:46:15.469Z,56.00
2023-11-28T14:48:50.249Z,52.13
2023-11-28T14:51:23.140Z,45.45
2023-11-28T14:53:56.044Z,64.60
2023-11-28T14:56:29.346Z,52.33
2023-11-28T14:59:03.849Z,53.05
2023-11-28T15:01:38.540Z,49.92
2023-11-28T15:04:15.992Z,51.80
2023-11-28T15:06:51.294Z,49.05
2023-11-28T15:09:25.087Z,53.90
2023-11-28T15:11:58.907Z,52.45
2023-11-28T15:14:31.913Z,57.17
2023-11-28T15:17:04.945Z,57.77
2023-11-28T15:19:40.633Z,56.23
2023-11-28T15:22:15.578Z,52.05
2023-11-28T15:24:51.451Z,55.67
2023-11-28T15:27:24.615Z,58.25
2023-11-28T15:29:59.923Z,52.97
2023-11-28T15:32:33.291Z,57.33
2023-11-28T15:35:12.789Z,58.55
2023-11-28T15:37:52.800Z,54.60
2023-11-28T15:40:33.679Z,51.75
2023-11-28T15:43:10.493Z,55.10
2023-11-28T15:45:43.359Z,52.85
2023-11-28T15:48:16.327Z,51.75
2023-11-28T15:50:51.133Z,50.53
2023-11-28T15:53:24.655Z,55.65
2023-11-28T15:55:57.626Z,57.15
2023-11-28T15:58:30.542Z,48.20
2023-11-28T16:01:03.467Z,56.92
2023-11-28T16:03:38.874Z,55.13
2023-11-28T16:06:17.037Z,48.92
2023-11-28T16:08:52.332Z,49.33
2023-11-28T16:11:25.882Z,56.47
2023-11-28T16:13:59.067Z,61.05
2023-11-28T16:16:31.982Z,58.40
2023-11-28T16:19:05.404Z,53.42
2023-11-28T16:24:15.592Z,59.67
2023-11-28T16:26:50.486Z,50.28
2023-11-28T16:29:23.497Z,55.25
2023-11-28T16:31:56.381Z,54.70
2023-11-28T16:34:29.312Z,46.65
2023-11-28T16:37:03.618Z,50.88
2023-11-28T16:39:41.425Z,49.60
2023-11-28T16:42:15.641Z,50.58
2023-11-28T16:44:48.612Z,56.33
2023-11-28T16:47:21.802Z,52.87
2023-11-28T16:49:54.701Z,52.65
2023-11-28T16:52:29.220Z,56.23
2023-11-28T16:55:02.068Z,51.85
2023-11-28T16:57:35.523Z,54.17
2023-11-28T17:00:11.623Z,56.10
2023-11-28T17:02:44.929Z,56.47
2023-11-28T17:05:19.515Z,52.67
2023-11-28T17:07:53.911Z,53.10
2023-11-28T17:10:29.446Z,60.30
2023-11-28T17:13:04.131Z,64.50
2023-11-28T17:15:37.804Z,56.00
2023-11-28T17:18:10.878Z,58.75
2023-11-28T17:20:44.162Z,62.88
2023-11-28T17:23:18.639Z,60.17
2023-11-28T17:25:51.589Z,57.20
2023-11-28T17:28:24.430Z,58.45
2023-11-28T17:30:57.958Z,67.90
2023-11-28T17:33:31.451Z,62.88
2023-11-28T17:36:04.805Z,63.33
2023-11-28T17:38:39.438Z,62.72
2023-11-28T17:41:17.852Z,64.70
2023-11-28T17:43:50.727Z,66.53
2023-11-28T17:46:23.637Z,61.50
2023-11-28T17:48:59.893Z,65.18
2023-11-28T17:51:33.273Z,63.83
2023-11-28T17:54:07.693Z,63.05
2023-11-28T17:56:42.847Z,70.70
2023-11-28T17:59:15.736Z,61.80
2023-11-28T18:01:49.279Z,72.60
2023-11-28T18:04:22.170Z,67.78
2023-11-28T18:06:58.498Z,71.88
2023-11-28T18:09:33.616Z,70.05
2023-11-28T18:12:07.394Z,65.40
2023-11-28T18:14:40.508Z,67.95
2023-11-28T18:17:13.527Z,68.63
2023-11-28T18:19:46.447Z,76.37
2023-11-28T18:22:20.746Z,72.40
2023-11-28T18:24:57.485Z,71.78
2023-11-28T18:27:30.499Z,78.40
2023-11-28T18:30:03.416Z,76.47
2023-11-28T18:32:36.375Z,71.90
2023-11-28T18:35:09.574Z,70.43
2023-11-28T18:37:42.552Z,70.10
2023-11-28T18:40:16.904Z,81.18
2023-11-28T18:42:50.147Z,73.95
2023-11-28T18:45:23.114Z,72.40
2023-11-28T18:47:57.643Z,78.45
2023-11-28T18:50:32.478Z,70.28
2023-11-28T18:53:05.472Z,86.82
2023-11-28T18:55:39.951Z,70.55
2023-11-28T18:58:12.796Z,76.13
2023-11-28T19:00:45.878Z,70.60
2023-11-28T19:03:19.258Z,69.57
2023-11-28T19:05:53.170Z,68.43
2023-11-28T19:08:26.113Z,68.25
2023-11-28T19:11:00.386Z,66.43
2023-11-28T19:13:33.656Z,71.55
2023-11-28T19:16:06.999Z,64.03
2023-11-28T19:18:41.697Z,63.63
2023-11-28T19:21:15.107Z,70.45
2023-11-28T19:23:51.062Z,62.47
2023-11-28T19:26:25.433Z,70.97
2023-11-28T19:28:58.979Z,72.72
2023-11-28T19:31:33.360Z,79.15
2023-11-28T19:34:06.799Z,153.63
2023-11-28T19:36:39.650Z,83.55
2023-11-28T19:39:21.935Z,71.72
2023-11-28T19:41:58.061Z,77.75
2023-11-28T19:44:31.027Z,73.70
2023-11-28T19:47:05.730Z,61.95
2023-11-28T19:49:38.854Z,76.30
2023-11-28T19:52:11.834Z,72.03
2023-11-28T19:54:44.796Z,71.82
2023-11-28T19:57:19.858Z,79.85
2023-11-28T19:59:53.272Z,83.07
2023-11-28T20:02:26.620Z,79.82
2023-11-28T20:05:01.817Z,75.43
2023-11-28T20:07:39.316Z,80.78
2023-11-28T20:10:12.413Z,79.88
2023-11-28T20:12:48.247Z,78.53
2023-11-28T20:15:21.118Z,66.82
2023-11-28T20:17:54.109Z,68.82
2023-11-28T20:20:27.700Z,74.70
2023-11-28T20:23:01.063Z,63.78
2023-11-28T20:25:34.268Z,73.88
2023-11-28T20:28:08.628Z,66.07
2023-11-28T20:30:42.313Z,67.85
2023-11-28T20:33:15.233Z,68.55
2023-11-28T20:35:53.206Z,66.65
2023-11-28T20:38:26.243Z,75.40
2023-11-28T20:41:07.366Z,71.50
2023-11-28T20:43:51.227Z,70.72
2023-11-28T20:46:25.904Z,73.25
2023-11-28T20:49:06.192Z,64.13
2023-11-28T20:51:39.026Z,65.53
2023-11-28T20:54:12.361Z,61.25
2023-11-28T20:56:45.460Z,66.90
2023-11-28T20:59:20.250Z,60.13
2023-11-28T21:01:53.289Z,62.13
2023-11-28T21:04:26.230Z,67.18
2023-11-28T21:07:10.078Z,73.82
2023-11-28T21:09:43.669Z,64.10
2023-11-28T21:12:18.865Z,66.55
2023-11-28T21:14:53.536Z,66.07
2023-11-28T21:17:26.698Z,70.65
2023-11-28T21:20:00.536Z,75.95
2023-11-28T21:22:34.275Z,73.15
2023-11-28T21:25:08.077Z,83.65
2023-11-28T21:27:41.621Z,71.03
2023-11-28T21:30:20.317Z,71.63
2023-11-28T21:32:53.275Z,80.88
2023-11-28T21:35:26.934Z,77.20
2023-11-28T21:38:00.151Z,78.05
2023-11-28T21:40:33.743Z,80.95
2023-11-28T21:43:07.528Z,81.47
2023-11-28T21:45:41.989Z,78.80
2023-11-28T21:48:22.203Z,84.85
2023-11-28T21:50:59.023Z,80.30
2023-11-28T21:53:37.046Z,81.10
2023-11-28T21:56:10.443Z,81.15
2023-11-28T21:58:43.385Z,76.75
2023-11-28T22:01:17.888Z,69.95
2023-11-28T22:03:51.037Z,77.95
2023-11-28T22:06:24.351Z,69.25
2023-11-28T22:09:02.379Z,84.68
2023-11-28T22:11:36.552Z,84.32
2023-11-28T22:14:09.523Z,79.63
2023-11-28T22:16:43.834Z,62.60
2023-11-28T22:19:16.956Z,56.28
2023-11-28T22:21:49.872Z,58.28
2023-11-28T22:24:23.976Z,50.17
2023-11-28T22:26:56.970Z,51.20
2023-11-28T22:29:30.044Z,44.55
2023-11-28T22:32:05.162Z,52.28
2023-11-28T22:34:38.155Z,47.55
2023-11-28T22:37:11.879Z,48.47
2023-11-28T22:39:44.926Z,51.60
2023-11-28T22:42:17.781Z,41.60
2023-11-28T22:44:51.489Z,47.80
2023-11-28T22:47:25.872Z,54.60
2023-11-28T22:49:58.787Z,55.53
2023-11-28T22:52:31.727Z,47.00
2023-11-28T22:55:07.579Z,48.85
2023-11-28T22:57:40.627Z,52.42
2023-11-28T23:00:16.412Z,56.63
2023-11-28T23:02:50.880Z,45.38
2023-11-28T23:05:23.842Z,40.17
2023-11-28T23:07:56.734Z,42.35
2023-11-28T23:10:29.662Z,42.63
2023-11-28T23:13:02.525Z,47.28
2023-11-28T23:15:35.397Z,45.33
2023-11-28T23:18:09.684Z,48.00
2023-11-28T23:20:43.859Z,45.47
2023-11-28T23:23:16.770Z,44.95
2023-11-28T23:25:49.801Z,47.95
2023-11-28T23:28:22.732Z,43.50
2023-11-28T23:30:56.184Z,42.65
2023-11-28T23:33:31.242Z,49.70
2023-11-28T23:36:04.462Z,48.10
2023-11-28T23:38:37.404Z,51.97
2023-11-28T23:41:10.572Z,51.35
2023-11-28T23:43:43.505Z,51.92
2023-11-28T23:46:16.439Z,51.13
2023-11-28T23:48:53.532Z,51.70
2023-11-28T23:51:26.563Z,50.03
2023-11-28T23:53:59.677Z,45.90
2023-11-28T23:56:32.685Z,48.58
2023-11-28T23:59:05.841Z,42.47
